createdAt,value
2022-10-30T00:01:34.251Z,11.62
2022-10-30T00:04:00.705Z,11.55
2022-10-30T00:06:27.104Z,11.50
2022-10-30T00:08:53.573Z,11.41
2022-10-30T00:11:20.045Z,11.37
2022-10-30T00:13:46.605Z,11.42
2022-10-30T00:16:13.050Z,11.47
2022-10-30T00:18:41.958Z,11.42
2022-10-30T00:21:11.668Z,11.48
2022-10-30T00:23:38.290Z,11.45
2022-10-30T00:26:07.010Z,11.27
2022-10-30T00:28:33.607Z,11.27
2022-10-30T00:31:02.414Z,11.30
2022-10-30T00:33:29.743Z,11.32
2022-10-30T00:35:57.080Z,11.27
2022-10-30T00:38:23.634Z,11.17
2022-10-30T00:40:50.374Z,11.05
2022-10-30T00:43:29.263Z,11.02
2022-10-30T00:46:01.324Z,11.03
2022-10-30T00:48:28.255Z,11.03
2022-10-30T00:50:57.066Z,11.06
2022-10-30T00:53:23.846Z,11.12
2022-10-30T00:55:55.953Z,11.21
2022-10-30T00:58:29.018Z,11.28
2022-10-30T01:00:58.022Z,11.20
2022-10-30T01:03:27.475Z,11.12
2022-10-30T01:06:00.505Z,11.11
2022-10-30T01:08:27.347Z,11.05
2022-10-30T01:10:54.479Z,11.06
2022-10-30T01:13:23.204Z,11.03
2022-10-30T01:16:18.705Z,10.94
2022-10-30T01:18:53.608Z,10.83
2022-10-30T01:21:40.408Z,10.78
2022-10-30T01:24:14.913Z,10.70
2022-10-30T01:26:59.666Z,10.61
2022-10-30T01:29:38.277Z,10.54
2022-10-30T01:32:12.168Z,10.54
2022-10-30T01:34:51.467Z,10.50
2022-10-30T01:37:28.424Z,10.47
2022-10-30T01:39:54.942Z,10.41
2022-10-30T01:42:48.273Z,10.34
2022-10-30T01:45:49.772Z,10.25
2022-10-30T01:48:31.403Z,10.24
2022-10-30T01:51:09.383Z,10.27
2022-10-30T01:54:01.824Z,10.25
2022-10-30T01:57:00.866Z,10.22
2022-10-30T01:59:39.667Z,10.28
2022-10-30T02:02:07.914Z,10.30
2022-10-30T02:04:34.920Z,10.31
2022-10-30T02:07:01.482Z,10.34
2022-10-30T02:09:28.655Z,10.33
2022-10-30T02:11:55.513Z,10.27
2022-10-30T02:14:26.880Z,10.23
2022-10-30T02:16:56.804Z,10.19
2022-10-30T02:19:23.229Z,10.11
2022-10-30T02:21:50.900Z,10.07
2022-10-30T02:24:17.846Z,10.03
2022-10-30T02:26:44.276Z,9.98
2022-10-30T02:29:10.737Z,9.98
2022-10-30T02:31:37.502Z,9.97
2022-10-30T02:34:04.404Z,9.87
2022-10-30T02:36:32.629Z,9.80
2022-10-30T02:39:00.035Z,9.80
2022-10-30T02:41:26.468Z,9.62
2022-10-30T02:43:53.537Z,9.51
2022-10-30T02:46:20.451Z,9.51
2022-10-30T02:48:48.407Z,9.57
2022-10-30T02:51:14.872Z,9.60
2022-10-30T02:53:41.344Z,9.63
2022-10-30T02:56:11.687Z,9.55
2022-10-30T02:58:40.734Z,9.44
2022-10-30T03:01:13.566Z,9.41
2022-10-30T03:03:41.626Z,9.47
2022-10-30T03:06:10.529Z,9.46
2022-10-30T03:08:37.058Z,9.41
2022-10-30T03:11:08.025Z,9.39
2022-10-30T03:13:36.098Z,9.32
2022-10-30T03:16:06.275Z,9.27
2022-10-30T03:18:33.967Z,9.31
2022-10-30T03:21:08.628Z,9.34
2022-10-30T03:23:35.720Z,9.27
2022-10-30T03:26:03.248Z,9.24
2022-10-30T03:28:32.792Z,9.22
2022-10-30T03:31:05.392Z,9.24
2022-10-30T03:33:33.030Z,9.13
2022-10-30T03:36:00.586Z,9.08
2022-10-30T03:38:27.251Z,9.10
2022-10-30T03:40:54.016Z,9.13
2022-10-30T03:43:21.220Z,9.15
2022-10-30T03:45:54.109Z,9.06
2022-10-30T03:48:22.760Z,9.07
2022-10-30T03:50:49.936Z,9.04
2022-10-30T03:53:17.085Z,9.05
2022-10-30T03:55:43.510Z,9.01
2022-10-30T03:58:09.953Z,8.97
2022-10-30T04:00:37.069Z,9.01
2022-10-30T04:03:07.743Z,8.94
2022-10-30T04:05:37.326Z,8.98
2022-10-30T04:08:12.835Z,8.98
2022-10-30T04:10:44.881Z,9.00
2022-10-30T04:13:13.624Z,8.95
2022-10-30T04:15:56.233Z,8.99
2022-10-30T04:18:25.248Z,8.98
2022-10-30T04:20:51.673Z,8.97
2022-10-30T04:23:20.320Z,9.01
2022-10-30T04:25:47.705Z,9.03
2022-10-30T04:28:14.606Z,8.95
2022-10-30T04:30:41.998Z,8.86
2022-10-30T04:33:12.188Z,8.80
2022-10-30T04:35:40.388Z,8.77
2022-10-30T04:38:16.548Z,8.78
2022-10-30T04:40:44.435Z,8.77
2022-10-30T04:43:13.515Z,8.80
2022-10-30T04:45:41.090Z,8.82
2022-10-30T04:48:15.956Z,8.81
2022-10-30T04:50:43.749Z,8.70
2022-10-30T04:53:16.095Z,8.64
2022-10-30T04:55:44.539Z,8.60
2022-10-30T04:58:12.992Z,8.61
2022-10-30T05:00:42.059Z,8.63
2022-10-30T05:03:22.648Z,8.59
2022-10-30T05:06:06.449Z,8.59
2022-10-30T05:08:33.443Z,8.64
2022-10-30T05:11:05.329Z,8.66
2022-10-30T05:13:32.317Z,8.67
2022-10-30T05:15:58.713Z,8.61
2022-10-30T05:18:25.163Z,8.61
2022-10-30T05:20:52.296Z,8.63
2022-10-30T05:23:18.676Z,8.66
2022-10-30T05:25:45.534Z,8.70
2022-10-30T05:28:14.037Z,8.67
2022-10-30T05:30:45.843Z,8.65
2022-10-30T05:33:28.005Z,8.69
2022-10-30T05:35:54.610Z,8.75
2022-10-30T05:38:21.047Z,8.85
2022-10-30T05:40:48.000Z,8.91
2022-10-30T05:43:14.774Z,8.74
2022-10-30T05:45:41.215Z,8.62
2022-10-30T05:48:07.895Z,8.65
2022-10-30T05:50:41.640Z,8.57
2022-10-30T05:53:28.437Z,8.52
2022-10-30T05:55:57.882Z,8.45
2022-10-30T05:58:25.718Z,8.40
2022-10-30T06:00:54.772Z,8.42
2022-10-30T06:03:34.977Z,8.46
2022-10-30T06:06:01.905Z,8.48
2022-10-30T06:08:28.371Z,8.51
2022-10-30T06:10:58.021Z,8.50
2022-10-30T06:13:35.112Z,8.57
2022-10-30T06:16:07.438Z,8.66
2022-10-30T06:18:57.201Z,8.76
2022-10-30T06:21:24.997Z,8.78
2022-10-30T06:24:17.456Z,8.77
2022-10-30T06:26:59.167Z,8.82
2022-10-30T06:29:25.837Z,8.88
2022-10-30T06:31:52.276Z,8.89
2022-10-30T06:34:18.740Z,8.92
2022-10-30T06:36:47.562Z,8.89
2022-10-30T06:39:14.066Z,8.93
2022-10-30T06:41:56.432Z,8.92
2022-10-30T06:44:45.836Z,8.98
2022-10-30T06:47:12.282Z,9.07
2022-10-30T06:49:38.890Z,9.10
2022-10-30T06:52:05.348Z,9.12
2022-10-30T06:54:32.739Z,9.12
2022-10-30T06:56:59.107Z,9.09
2022-10-30T06:59:37.385Z,9.06
2022-10-30T07:02:24.254Z,9.12
2022-10-30T07:04:55.916Z,9.16
2022-10-30T07:07:22.516Z,9.13
2022-10-30T07:09:49.598Z,9.19
2022-10-30T07:12:19.868Z,9.29
2022-10-30T07:14:58.965Z,9.37
2022-10-30T07:17:52.395Z,9.41
2022-10-30T07:20:22.159Z,9.47
2022-10-30T07:22:48.884Z,9.57
2022-10-30T07:25:15.552Z,9.68
2022-10-30T07:28:02.023Z,9.74
2022-10-30T07:30:42.712Z,9.75
2022-10-30T07:33:17.379Z,9.78
2022-10-30T07:36:03.657Z,9.80
2022-10-30T07:38:51.761Z,9.88
2022-10-30T07:41:31.997Z,9.90
2022-10-30T07:44:17.166Z,9.92
2022-10-30T07:47:09.655Z,9.96
2022-10-30T07:49:45.469Z,9.99
2022-10-30T07:52:17.209Z,10.08
2022-10-30T07:54:45.785Z,10.17
2022-10-30T07:57:39.673Z,10.25
2022-10-30T08:00:24.661Z,10.36
2022-10-30T08:03:01.896Z,10.48
2022-10-30T08:05:44.822Z,10.56
2022-10-30T08:08:13.915Z,10.63
2022-10-30T08:10:40.372Z,10.69
2022-10-30T08:13:07.466Z,10.76
2022-10-30T08:15:34.054Z,10.83
2022-10-30T08:18:02.095Z,10.94
2022-10-30T08:20:29.172Z,11.04
2022-10-30T08:22:57.936Z,11.15
2022-10-30T08:25:27.627Z,11.25
2022-10-30T08:27:59.670Z,11.36
2022-10-30T08:30:32.250Z,11.46
2022-10-30T08:33:00.563Z,11.58
2022-10-30T08:35:50.534Z,11.69
2022-10-30T08:38:18.143Z,11.78
2022-10-30T08:40:49.159Z,11.89
2022-10-30T08:43:16.382Z,12.03
2022-10-30T08:45:43.158Z,12.16
2022-10-30T08:48:14.929Z,12.31
2022-10-30T08:50:43.684Z,12.43
2022-10-30T08:53:12.421Z,12.54
2022-10-30T08:55:39.269Z,12.65
2022-10-30T08:58:12.538Z,12.78
2022-10-30T09:00:39.424Z,12.89
2022-10-30T09:03:11.596Z,13.00
2022-10-30T09:05:40.894Z,13.11
2022-10-30T09:08:16.482Z,13.25
2022-10-30T09:11:02.114Z,13.38
2022-10-30T09:13:29.237Z,13.53
2022-10-30T09:16:04.125Z,13.68
2022-10-30T09:18:33.922Z,13.81
2022-10-30T09:21:03.199Z,13.96
2022-10-30T09:23:34.461Z,14.07
2022-10-30T09:26:20.788Z,14.19
2022-10-30T09:28:53.547Z,14.34
2022-10-30T09:31:46.220Z,14.49
2022-10-30T09:34:16.896Z,14.69
2022-10-30T09:37:00.054Z,14.88
2022-10-30T09:39:29.866Z,15.03
2022-10-30T09:42:08.837Z,15.26
2022-10-30T09:48:18.041Z,15.81
2022-10-30T09:51:21.569Z,16.02
2022-10-30T09:54:00.296Z,16.29
2022-10-30T09:56:44.650Z,16.56
2022-10-30T09:59:17.807Z,16.81
2022-10-30T10:01:57.891Z,17.06
2022-10-30T10:04:34.723Z,17.28
2022-10-30T10:07:35.036Z,17.55
2022-10-30T10:10:33.822Z,17.64
2022-10-30T10:13:27.622Z,17.76
2022-10-30T10:15:58.808Z,17.94
2022-10-30T10:21:16.995Z,18.27
2022-10-30T10:23:48.703Z,18.48
2022-10-30T10:26:27.312Z,18.74
2022-10-30T10:29:09.477Z,18.95
2022-10-30T10:31:53.982Z,19.20
2022-10-30T10:34:45.424Z,19.38
2022-10-30T10:37:42.442Z,19.57
2022-10-30T10:40:59.583Z,19.75
2022-10-30T10:43:43.737Z,19.92
2022-10-30T10:46:40.214Z,20.13
2022-10-30T10:49:15.740Z,20.24
2022-10-30T10:52:07.629Z,20.37
2022-10-30T10:54:52.460Z,20.49
2022-10-30T10:57:36.189Z,20.60
2022-10-30T11:00:06.212Z,20.73
2022-10-30T11:02:39.070Z,20.93
2022-10-30T11:05:25.225Z,21.08
2022-10-30T11:07:52.375Z,21.19
2022-10-30T11:10:20.240Z,21.37
2022-10-30T11:12:46.936Z,21.53
2022-10-30T11:15:32.989Z,21.61
2022-10-30T11:18:03.333Z,21.70
2022-10-30T11:20:37.458Z,21.78
2022-10-30T11:23:04.376Z,21.80
2022-10-30T11:25:36.356Z,21.98
2022-10-30T11:28:05.553Z,22.12
2022-10-30T11:30:32.413Z,22.27
2022-10-30T11:32:59.535Z,22.41
2022-10-30T11:35:26.422Z,22.57
2022-10-30T11:38:13.668Z,22.78
2022-10-30T11:40:47.145Z,22.91
2022-10-30T11:43:18.171Z,23.00
2022-10-30T11:45:45.133Z,23.12
2022-10-30T11:48:23.388Z,23.12
2022-10-30T11:50:51.584Z,23.12
2022-10-30T11:53:24.563Z,23.11
2022-10-30T11:55:51.150Z,23.20
2022-10-30T11:58:32.759Z,23.17
2022-10-30T12:01:03.060Z,23.13
2022-10-30T12:03:35.880Z,23.24
2022-10-30T12:06:30.120Z,23.34
2022-10-30T12:09:00.502Z,23.50
2022-10-30T12:11:29.708Z,23.61
2022-10-30T12:13:57.231Z,23.74
2022-10-30T12:16:33.769Z,23.80
2022-10-30T12:19:06.644Z,23.84
2022-10-30T12:21:39.799Z,23.85
2022-10-30T12:24:16.212Z,23.82
2022-10-30T12:26:47.580Z,23.72
2022-10-30T12:29:17.856Z,23.66
2022-10-30T12:31:59.765Z,23.75
2022-10-30T12:34:38.183Z,23.79
2022-10-30T12:37:29.083Z,23.99
2022-10-30T12:40:05.363Z,24.07
2022-10-30T12:42:37.355Z,24.15
2022-10-30T12:45:19.544Z,24.27
2022-10-30T12:47:52.816Z,24.39
2022-10-30T12:50:42.631Z,24.45
2022-10-30T12:53:26.511Z,24.56
2022-10-30T12:56:00.184Z,24.58
2022-10-30T12:58:49.051Z,24.52
2022-10-30T13:01:36.866Z,24.53
2022-10-30T13:04:28.720Z,24.46
2022-10-30T13:07:19.797Z,24.55
2022-10-30T13:10:03.460Z,24.59
2022-10-30T13:12:36.081Z,24.56
2022-10-30T13:15:33.616Z,24.62
2022-10-30T13:18:13.968Z,24.74
2022-10-30T13:20:42.115Z,24.78
2022-10-30T13:23:20.505Z,24.79
2022-10-30T13:26:07.834Z,24.80
2022-10-30T13:28:52.360Z,24.77
2022-10-30T13:31:31.236Z,24.72
2022-10-30T13:34:02.344Z,24.86
2022-10-30T13:39:41.862Z,25.06
2022-10-30T13:42:45.897Z,25.35
2022-10-30T13:45:51.103Z,25.32
2022-10-30T13:48:26.367Z,25.31
2022-10-30T13:51:08.058Z,25.20
2022-10-30T13:53:39.115Z,25.27
2022-10-30T13:56:06.978Z,25.10
2022-10-30T13:58:51.718Z,24.93
2022-10-30T14:01:39.588Z,24.70
2022-10-30T14:04:17.102Z,24.70
2022-10-30T14:07:17.142Z,24.53
2022-10-30T14:09:53.121Z,24.45
2022-10-30T14:12:45.751Z,24.64
2022-10-30T14:15:33.430Z,25.47
2022-10-30T14:18:24.560Z,25.74
2022-10-30T14:20:53.089Z,25.50
2022-10-30T14:23:19.399Z,25.31
2022-10-30T14:26:13.901Z,25.09
2022-10-30T14:28:44.121Z,25.23
2022-10-30T14:31:11.838Z,25.54
2022-10-30T14:33:44.556Z,26.88
2022-10-30T14:36:22.819Z,27.78
2022-10-30T14:38:55.188Z,27.39
2022-10-30T14:41:31.490Z,27.05
2022-10-30T14:44:23.345Z,26.26
2022-10-30T14:47:22.073Z,25.74
2022-10-30T14:50:17.628Z,25.59
2022-10-30T14:53:05.670Z,25.41
2022-10-30T14:55:40.399Z,25.30
2022-10-30T14:58:15.147Z,25.00
2022-10-30T15:00:42.957Z,24.71
2022-10-30T15:03:12.390Z,24.45
2022-10-30T15:06:18.279Z,24.04
2022-10-30T15:09:08.718Z,23.59
2022-10-30T15:12:02.125Z,23.27
2022-10-30T15:14:52.652Z,23.05
2022-10-30T15:17:24.102Z,22.72
2022-10-30T15:19:50.574Z,22.49
2022-10-30T15:22:22.153Z,22.37
2022-10-30T15:24:50.928Z,22.14
2022-10-30T15:27:19.317Z,21.98
2022-10-30T15:29:53.515Z,21.70
2022-10-30T15:32:22.797Z,21.52
2022-10-30T15:35:18.541Z,21.29
2022-10-30T15:37:57.855Z,21.12
2022-10-30T15:40:24.780Z,20.90
2022-10-30T15:42:52.705Z,20.68
2022-10-30T15:45:22.936Z,20.47
2022-10-30T15:48:00.760Z,20.32
2022-10-30T15:50:27.925Z,20.10
2022-10-30T15:52:54.584Z,19.88
2022-10-30T15:55:30.387Z,19.72
2022-10-30T15:58:04.579Z,19.53
2022-10-30T16:00:35.025Z,19.34
2022-10-30T16:03:04.016Z,19.16
2022-10-30T16:05:31.084Z,18.95
2022-10-30T16:08:02.190Z,18.72
2022-10-30T16:10:39.469Z,18.56
2022-10-30T16:13:05.901Z,18.38
2022-10-30T16:15:39.365Z,18.13
2022-10-30T16:18:14.423Z,18.03
2022-10-30T16:20:43.977Z,17.93
2022-10-30T16:23:13.202Z,17.73
2022-10-30T16:25:46.792Z,17.62
2022-10-30T16:28:37.572Z,17.37
2022-10-30T16:31:14.220Z,17.17
2022-10-30T16:33:42.741Z,17.07
2022-10-30T16:36:14.872Z,16.95
2022-10-30T16:38:41.656Z,16.71
2022-10-30T16:41:13.298Z,16.63
2022-10-30T16:44:03.738Z,16.44
2022-10-30T16:46:39.892Z,16.33
2022-10-30T16:49:13.169Z,16.26
2022-10-30T16:51:40.314Z,16.25
2022-10-30T16:54:17.113Z,16.10
2022-10-30T16:56:47.377Z,15.91
2022-10-30T16:59:20.210Z,15.79
2022-10-30T17:01:53.665Z,15.69
2022-10-30T17:04:20.510Z,15.66
2022-10-30T17:06:47.291Z,15.47
2022-10-30T17:09:27.472Z,15.36
2022-10-30T17:12:18.848Z,15.18
2022-10-30T17:15:10.597Z,15.14
2022-10-30T17:17:39.442Z,15.10
2022-10-30T17:20:22.679Z,15.07
2022-10-30T17:23:05.556Z,15.03
2022-10-30T17:25:39.155Z,14.95
2022-10-30T17:28:06.509Z,14.89
2022-10-30T17:30:36.148Z,14.77
2022-10-30T17:33:24.144Z,14.75
2022-10-30T17:35:51.072Z,14.61
2022-10-30T17:38:17.970Z,14.55
2022-10-30T17:40:44.384Z,14.43
2022-10-30T17:43:15.158Z,14.31
2022-10-30T17:45:43.167Z,14.33
2022-10-30T17:48:13.325Z,14.35
2022-10-30T17:50:40.238Z,14.26
2022-10-30T17:53:06.653Z,14.22
2022-10-30T17:55:34.885Z,14.17
2022-10-30T17:58:01.315Z,14.07
2022-10-30T18:00:27.793Z,14.05
2022-10-30T18:02:54.211Z,14.04
2022-10-30T18:05:23.610Z,14.03
2022-10-30T18:10:21.346Z,13.86
2022-10-30T18:12:47.738Z,13.83
2022-10-30T18:15:32.046Z,13.81
2022-10-30T18:17:58.692Z,13.70
2022-10-30T18:20:26.124Z,13.64
2022-10-30T18:22:53.599Z,13.54
2022-10-30T18:25:26.625Z,13.57
2022-10-30T18:27:53.673Z,13.59
2022-10-30T18:30:20.780Z,13.57
2022-10-30T18:32:47.308Z,13.58
2022-10-30T18:35:35.070Z,13.52
2022-10-30T18:38:01.848Z,13.48
2022-10-30T18:40:29.335Z,13.41
2022-10-30T18:42:55.834Z,13.38
2022-10-30T18:45:22.248Z,13.22
2022-10-30T18:47:49.477Z,13.04
2022-10-30T18:50:17.015Z,12.99
2022-10-30T18:52:43.751Z,12.98
2022-10-30T18:55:19.103Z,12.95
2022-10-30T18:57:46.354Z,12.92
2022-10-30T19:00:14.749Z,12.90
2022-10-30T19:02:41.603Z,12.87
2022-10-30T19:05:19.991Z,12.83
2022-10-30T19:07:46.683Z,12.80
2022-10-30T19:10:13.135Z,12.79
2022-10-30T19:12:46.659Z,12.76
2022-10-30T19:15:45.010Z,12.76
2022-10-30T19:18:12.083Z,12.58
2022-10-30T19:21:02.824Z,12.47
2022-10-30T19:23:25.703Z,12.47
2022-10-30T19:25:52.748Z,12.43
2022-10-30T19:28:20.787Z,12.32
2022-10-30T19:30:54.569Z,12.31
2022-10-30T19:33:22.794Z,12.17
2022-10-30T19:35:56.580Z,12.16
2022-10-30T19:38:23.103Z,12.23
2022-10-30T19:40:50.370Z,12.17
2022-10-30T19:43:17.198Z,12.15
2022-10-30T19:45:43.747Z,12.07
2022-10-30T19:48:17.695Z,11.97
2022-10-30T19:50:47.707Z,11.91
2022-10-30T19:53:14.774Z,11.81
2022-10-30T19:55:43.117Z,11.79
2022-10-30T19:58:15.198Z,11.77
2022-10-30T20:00:44.134Z,11.83
2022-10-30T20:03:13.245Z,11.66
2022-10-30T20:05:42.805Z,11.62
2022-10-30T20:08:20.144Z,11.63
2022-10-30T20:11:04.624Z,11.61
2022-10-30T20:13:33.116Z,11.58
2022-10-30T20:16:02.349Z,11.56
2022-10-30T20:18:31.834Z,11.54
2022-10-30T20:21:01.513Z,11.49
2022-10-30T20:23:28.637Z,11.48
2022-10-30T20:26:00.204Z,11.45
2022-10-30T20:28:36.466Z,11.40
2022-10-30T20:31:03.132Z,11.45
2022-10-30T20:33:29.554Z,11.31
2022-10-30T20:35:56.308Z,11.24
2022-10-30T20:38:29.162Z,11.20
2022-10-30T20:40:57.106Z,11.20
2022-10-30T20:43:35.390Z,11.22
2022-10-30T20:46:03.369Z,11.00
2022-10-30T20:48:29.838Z,11.02
2022-10-30T20:50:57.768Z,10.93
2022-10-30T20:53:24.429Z,10.85
2022-10-30T20:55:51.154Z,10.77
2022-10-30T20:58:17.990Z,10.76
2022-10-30T21:00:44.655Z,10.73
2022-10-30T21:03:14.299Z,10.73
2022-10-30T21:05:44.596Z,10.66
2022-10-30T21:08:13.260Z,10.64
2022-10-30T21:10:40.402Z,10.59
2022-10-30T21:13:09.036Z,10.56
2022-10-30T21:15:42.432Z,10.56
2022-10-30T21:18:10.801Z,10.52
2022-10-30T21:20:37.651Z,10.54
2022-10-30T21:23:05.034Z,10.50
2022-10-30T21:25:32.263Z,10.43
2022-10-30T21:27:59.554Z,10.36
2022-10-30T21:30:26.401Z,10.44
2022-10-30T21:32:52.835Z,10.48
2022-10-30T21:35:19.779Z,10.47
2022-10-30T21:37:46.165Z,10.43
2022-10-30T21:40:13.048Z,10.38
2022-10-30T21:42:39.506Z,10.36
2022-10-30T21:45:06.921Z,10.31
2022-10-30T21:47:33.345Z,10.18
2022-10-30T21:49:59.761Z,10.02
2022-10-30T21:52:26.270Z,10.01
2022-10-30T21:54:52.668Z,9.97
2022-10-30T21:57:19.158Z,9.95
2022-10-30T21:59:45.563Z,9.92
2022-10-30T22:02:15.347Z,9.92
2022-10-30T22:04:41.873Z,9.93
2022-10-30T22:07:08.604Z,9.94
2022-10-30T22:09:35.031Z,9.86
2022-10-30T22:12:01.435Z,9.81
2022-10-30T22:14:29.224Z,9.81
2022-10-30T22:16:55.720Z,9.84
2022-10-30T22:19:22.116Z,9.89
2022-10-30T22:21:48.475Z,9.83
2022-10-30T22:24:15.928Z,9.74
2022-10-30T22:26:42.321Z,9.65
2022-10-30T22:29:09.146Z,9.61
2022-10-30T22:31:35.545Z,9.58
2022-10-30T22:34:02.299Z,9.51
2022-10-30T22:36:31.086Z,9.47
2022-10-30T22:39:06.204Z,9.48
2022-10-30T22:41:37.286Z,9.57
2022-10-30T22:44:04.825Z,9.62
2022-10-30T22:46:31.215Z,9.61
2022-10-30T22:48:58.457Z,9.59
2022-10-30T22:51:25.472Z,9.57
2022-10-30T22:54:00.608Z,9.59
2022-10-30T22:56:29.739Z,9.57
2022-10-30T22:58:57.044Z,9.56
2022-10-30T23:01:25.961Z,9.52
2022-10-30T23:03:55.572Z,9.54
2022-10-30T23:06:22.814Z,9.53
2022-10-30T23:08:51.998Z,9.47
2022-10-30T23:11:18.770Z,9.39
2022-10-30T23:13:45.392Z,9.32
2022-10-30T23:16:14.485Z,9.32
2022-10-30T23:18:41.605Z,9.32
2022-10-30T23:21:12.637Z,9.32
2022-10-30T23:23:40.385Z,9.32
2022-10-30T23:26:13.227Z,9.26
2022-10-30T23:28:40.033Z,9.22
2022-10-30T23:31:08.243Z,9.12
2022-10-30T23:33:34.735Z,9.08
2022-10-30T23:36:02.568Z,9.04
2022-10-30T23:38:29.284Z,8.97
2022-10-30T23:40:55.724Z,9.04
2022-10-30T23:43:22.233Z,9.07
2022-10-30T23:45:48.641Z,9.06
2022-10-30T23:48:15.019Z,9.07
2022-10-30T23:50:41.401Z,9.09
2022-10-30T23:53:07.784Z,9.11
2022-10-30T23:55:34.217Z,9.09
2022-10-30T23:58:00.914Z,8.96
